createdAt,value
2022-08-09T00:00:11.251Z,79.99
2022-08-09T00:02:42.968Z,80.18
2022-08-09T00:06:18.516Z,79.95
2022-08-09T00:08:12.833Z,79.78
2022-08-09T00:10:59.564Z,80.11
2022-08-09T00:13:28.036Z,79.98
2022-08-09T00:16:02.826Z,80.22
2022-08-09T00:18:34.573Z,80.73
2022-08-09T00:21:04.472Z,80.43
2022-08-09T00:23:58.221Z,80.19
2022-08-09T00:26:19.464Z,80.02
2022-08-09T00:28:58.639Z,80.34
2022-08-09T00:31:56.726Z,80.30
2022-08-09T00:34:14.219Z,80.29
2022-08-09T00:36:42.094Z,80.27
2022-08-09T00:39:16.957Z,79.69
2022-08-09T00:44:13.797Z,78.91
2022-08-09T00:44:47.102Z,79.39
2022-08-09T00:47:16.302Z,79.87
2022-08-09T00:49:43.729Z,80.37
2022-08-09T00:52:20.424Z,80.18
2022-08-09T00:54:49.248Z,80.20
2022-08-09T00:57:33.854Z,80.41
2022-08-09T01:00:21.067Z,79.82
2022-08-09T01:03:20.384Z,79.57
2022-08-09T01:05:57.138Z,79.79
2022-08-09T01:08:40.531Z,79.67
2022-08-09T01:11:23.833Z,80.27
2022-08-09T01:14:00.034Z,80.46
2022-08-09T01:16:47.420Z,80.27
2022-08-09T01:20:01.920Z,80.36
2022-08-09T01:22:55.046Z,80.94
2022-08-09T01:25:24.911Z,81.07
2022-08-09T01:27:54.485Z,80.81
2022-08-09T01:30:33.700Z,80.62
2022-08-09T01:33:05.142Z,80.89
2022-08-09T01:35:45.481Z,81.43
2022-08-09T01:38:16.636Z,81.52
2022-08-09T01:41:04.817Z,81.16
2022-08-09T01:43:50.233Z,81.39
2022-08-09T01:46:26.550Z,80.85
2022-08-09T01:49:09.974Z,81.16
2022-08-09T01:51:44.382Z,81.64
2022-08-09T01:54:21.395Z,81.50
2022-08-09T01:56:51.621Z,81.51
2022-08-09T01:59:21.038Z,81.76
2022-08-09T02:01:58.113Z,81.65
2022-08-09T02:04:28.462Z,81.69
2022-08-09T02:07:17.873Z,81.97
2022-08-09T02:10:10.197Z,82.04
2022-08-09T02:12:39.323Z,82.04
2022-08-09T02:15:15.486Z,81.96
2022-08-09T02:18:01.271Z,82.24
2022-08-09T02:20:38.545Z,82.09
2022-08-09T02:23:14.103Z,82.13
2022-08-09T02:25:52.519Z,82.60
2022-08-09T02:28:44.918Z,82.54
2022-08-09T02:31:19.306Z,82.42
2022-08-09T02:34:06.581Z,82.53
2022-08-09T02:36:42.077Z,82.73
2022-08-09T02:39:33.230Z,82.55
2022-08-09T02:42:07.817Z,82.65
2022-08-09T02:44:38.473Z,82.46
2022-08-09T02:47:09.731Z,82.22
2022-08-09T02:50:01.880Z,82.36
2022-08-09T02:52:36.716Z,82.07
2022-08-09T02:55:20.997Z,81.96
2022-08-09T02:58:00.598Z,82.17
2022-08-09T03:00:47.784Z,82.53
2022-08-09T03:04:12.551Z,82.40
2022-08-09T03:06:15.113Z,82.45
2022-08-09T03:08:44.768Z,82.11
2022-08-09T03:12:04.428Z,82.01
2022-08-09T03:14:05.468Z,82.24
2022-08-09T03:16:37.404Z,82.33
2022-08-09T03:19:16.699Z,82.22
2022-08-09T03:21:58.073Z,82.29
2022-08-09T03:24:31.558Z,82.10
2022-08-09T03:27:12.722Z,82.02
2022-08-09T03:29:58.048Z,82.31
2022-08-09T03:32:36.778Z,82.09
2022-08-09T03:35:15.041Z,82.06
2022-08-09T03:37:56.414Z,82.62
2022-08-09T03:40:25.241Z,82.70
2022-08-09T03:42:57.953Z,82.70
2022-08-09T03:46:05.255Z,82.65
2022-08-09T03:48:11.602Z,82.55
2022-08-09T03:50:45.921Z,82.70
2022-08-09T03:53:16.828Z,82.66
2022-08-09T03:55:48.484Z,82.50
2022-08-09T03:58:16.355Z,82.33
2022-08-09T04:00:45.556Z,82.10
2022-08-09T04:03:15.296Z,82.10
2022-08-09T04:05:51.921Z,82.12
2022-08-09T04:08:19.192Z,82.15
2022-08-09T04:10:56.144Z,82.63
2022-08-09T04:14:36.640Z,82.70
2022-08-09T04:16:19.354Z,82.39
2022-08-09T04:18:48.021Z,82.23
2022-08-09T04:21:18.090Z,82.13
2022-08-09T04:23:54.413Z,82.23
2022-08-09T04:26:24.842Z,82.22
2022-08-09T04:29:07.865Z,82.03
2022-08-09T04:31:47.392Z,82.23
2022-08-09T04:34:19.050Z,82.26
2022-08-09T04:36:57.702Z,82.22
2022-08-09T04:39:24.657Z,81.91
2022-08-09T04:41:59.861Z,81.59
2022-08-09T04:44:29.339Z,81.86
2022-08-09T04:46:58.360Z,82.42
2022-08-09T04:49:53.241Z,82.62
2022-08-09T04:52:32.449Z,81.14
2022-08-09T04:55:01.561Z,79.85
2022-08-09T04:57:58.401Z,78.47
2022-08-09T05:00:16.758Z,77.36
2022-08-09T05:02:44.327Z,76.90
2022-08-09T05:05:31.514Z,76.06
2022-08-09T05:08:05.741Z,75.36
2022-08-09T05:10:34.112Z,74.01
2022-08-09T05:13:04.007Z,73.38
2022-08-09T05:15:39.079Z,72.70
2022-08-09T05:18:37.642Z,72.80
2022-08-09T05:21:01.940Z,73.37
2022-08-09T05:23:54.941Z,74.14
2022-08-09T05:26:16.034Z,73.93
2022-08-09T05:28:53.404Z,73.49
2022-08-09T05:31:37.015Z,73.57
2022-08-09T05:34:06.906Z,72.47
2022-08-09T05:36:43.799Z,71.61
2022-08-09T05:39:13.634Z,70.81
2022-08-09T05:41:55.697Z,69.72
2022-08-09T05:44:29.065Z,68.59
2022-08-09T05:46:59.746Z,66.66
2022-08-09T05:50:23.441Z,66.14
2022-08-09T05:52:14.057Z,68.13
2022-08-09T05:54:42.571Z,69.03
2022-08-09T05:57:14.243Z,69.42
2022-08-09T05:59:45.144Z,68.01
2022-08-09T06:02:17.125Z,65.58
2022-08-09T06:04:46.013Z,64.33
2022-08-09T06:07:21.148Z,63.64
2022-08-09T06:10:02.488Z,62.45
2022-08-09T06:12:30.470Z,62.27
2022-08-09T06:15:01.067Z,61.60
2022-08-09T06:17:39.917Z,60.96
2022-08-09T06:20:08.593Z,60.21
2022-08-09T06:22:36.254Z,59.86
2022-08-09T06:25:03.813Z,57.09
2022-08-09T06:27:42.015Z,56.88
2022-08-09T06:30:14.256Z,56.82
2022-08-09T06:33:00.856Z,58.00
2022-08-09T06:35:56.093Z,57.42
2022-08-09T06:38:16.998Z,55.33
2022-08-09T06:40:46.167Z,51.87
2022-08-09T06:43:14.100Z,49.49
2022-08-09T06:46:06.262Z,48.50
2022-08-09T06:48:30.877Z,46.65
2022-08-09T06:51:04.494Z,48.84
2022-08-09T06:53:33.202Z,48.29
2022-08-09T06:56:06.681Z,48.24
2022-08-09T07:00:46.509Z,46.66
2022-08-09T07:01:23.986Z,45.35
2022-08-09T07:03:57.828Z,44.74
2022-08-09T07:06:30.635Z,45.84
2022-08-09T07:08:57.421Z,46.60
2022-08-09T07:11:25.572Z,44.96
2022-08-09T07:14:05.495Z,46.25
2022-08-09T07:16:43.362Z,44.77
2022-08-09T07:19:18.576Z,44.64
2022-08-09T07:21:55.582Z,45.04
2022-08-09T07:24:32.233Z,44.72
2022-08-09T07:27:23.894Z,44.11
2022-08-09T07:29:58.478Z,44.80
2022-08-09T07:32:32.617Z,43.97
2022-08-09T07:35:07.939Z,47.27
2022-08-09T07:37:44.016Z,45.88
2022-08-09T07:40:18.890Z,46.52
2022-08-09T07:42:54.901Z,45.25
2022-08-09T07:45:37.860Z,45.72
2022-08-09T07:48:08.298Z,46.23
2022-08-09T07:51:09.490Z,46.84
2022-08-09T07:54:04.356Z,46.73
2022-08-09T07:56:28.925Z,47.11
2022-08-09T07:58:59.209Z,49.04
2022-08-09T08:01:28.479Z,48.63
2022-08-09T08:04:02.718Z,48.68
2022-08-09T08:06:32.943Z,48.60
2022-08-09T08:09:05.349Z,47.62
2022-08-09T08:12:10.415Z,47.63
2022-08-09T08:14:31.859Z,47.28
2022-08-09T08:17:07.355Z,46.27
2022-08-09T08:19:35.253Z,49.27
2022-08-09T08:22:03.125Z,47.85
2022-08-09T08:24:34.343Z,45.46
2022-08-09T08:27:16.776Z,46.06
2022-08-09T08:29:49.903Z,45.70
2022-08-09T08:32:24.160Z,44.83
2022-08-09T08:34:58.539Z,43.08
2022-08-09T08:37:30.947Z,43.65
2022-08-09T08:40:09.575Z,43.49
2022-08-09T08:42:38.384Z,43.30
2022-08-09T08:45:13.884Z,44.36
2022-08-09T08:47:42.889Z,44.09
2022-08-09T08:50:15.445Z,46.01
2022-08-09T08:52:57.836Z,46.48
2022-08-09T08:55:27.468Z,45.65
2022-08-09T08:57:58.230Z,46.02
2022-08-09T09:00:34.294Z,45.48
2022-08-09T09:03:12.250Z,46.61
2022-08-09T09:05:59.988Z,45.29
2022-08-09T09:08:41.017Z,45.99
2022-08-09T09:11:13.747Z,46.02
2022-08-09T09:13:55.147Z,46.16
2022-08-09T09:16:30.289Z,44.61
2022-08-09T09:21:58.079Z,43.62
2022-08-09T09:24:45.629Z,44.34
2022-08-09T09:27:47.212Z,45.43
2022-08-09T09:30:26.197Z,43.98
2022-08-09T09:33:16.850Z,41.85
2022-08-09T09:36:02.576Z,40.58
2022-08-09T09:38:52.240Z,41.36
2022-08-09T09:41:32.616Z,42.58
2022-08-09T09:44:12.120Z,40.92
2022-08-09T09:46:51.308Z,41.59
2022-08-09T09:49:49.781Z,42.06
2022-08-09T09:52:24.127Z,39.86
2022-08-09T09:55:23.845Z,39.70
2022-08-09T09:58:17.346Z,38.60
2022-08-09T10:00:59.553Z,39.59
2022-08-09T10:03:56.342Z,37.29
2022-08-09T10:06:43.432Z,37.57
2022-08-09T10:09:22.665Z,35.08
2022-08-09T10:12:15.067Z,35.04
2022-08-09T10:14:49.522Z,37.61
2022-08-09T10:17:40.241Z,35.55
2022-08-09T10:20:27.138Z,36.27
2022-08-09T10:23:12.377Z,34.53
2022-08-09T10:26:06.307Z,33.99
2022-08-09T10:28:33.230Z,34.05
2022-08-09T10:34:10.473Z,33.47
2022-08-09T10:36:36.393Z,32.91
2022-08-09T10:39:13.983Z,32.98
2022-08-09T10:41:46.042Z,31.35
2022-08-09T10:44:18.431Z,33.44
2022-08-09T10:48:16.228Z,32.97
2022-08-09T10:50:30.923Z,32.73
2022-08-09T10:53:10.986Z,31.61
2022-08-09T10:55:55.693Z,31.69
2022-08-09T10:58:34.812Z,31.55
2022-08-09T11:03:03.351Z,30.16
2022-08-09T11:04:19.407Z,31.36
2022-08-09T11:06:58.137Z,29.95
2022-08-09T11:09:41.044Z,29.33
2022-08-09T11:12:21.711Z,31.51
2022-08-09T11:14:57.689Z,31.70
2022-08-09T11:17:27.429Z,29.64
2022-08-09T11:20:10.754Z,30.15
2022-08-09T11:22:47.283Z,28.56
2022-08-09T11:25:47.823Z,30.19
2022-08-09T11:28:54.139Z,28.56
2022-08-09T11:31:49.476Z,29.25
2022-08-09T11:34:35.248Z,28.30
2022-08-09T11:37:03.538Z,27.99
2022-08-09T11:40:02.866Z,27.63
2022-08-09T11:42:53.448Z,28.35
2022-08-09T11:45:26.338Z,28.36
2022-08-09T11:48:19.355Z,28.91
2022-08-09T11:52:50.021Z,31.12
2022-08-09T11:54:01.274Z,29.84
2022-08-09T11:56:42.359Z,30.22
2022-08-09T11:59:30.271Z,31.73
2022-08-09T12:02:18.010Z,30.74
2022-08-09T12:04:58.174Z,28.80
2022-08-09T12:07:34.544Z,29.74
2022-08-09T12:10:14.387Z,30.70
2022-08-09T12:12:57.565Z,29.53
2022-08-09T12:15:49.712Z,29.90
2022-08-09T12:18:30.043Z,30.41
2022-08-09T12:21:00.455Z,29.90
2022-08-09T12:23:56.568Z,30.37
2022-08-09T12:26:19.875Z,29.54
2022-08-09T12:29:14.150Z,32.06
2022-08-09T12:31:58.703Z,30.23
2022-08-09T12:34:38.226Z,29.30
2022-08-09T12:37:22.230Z,28.41
2022-08-09T12:40:09.128Z,28.83
2022-08-09T12:42:37.245Z,28.28
2022-08-09T12:45:07.026Z,29.66
2022-08-09T12:47:52.640Z,28.69
2022-08-09T12:50:23.664Z,28.07
2022-08-09T12:53:09.350Z,28.10
2022-08-09T12:56:11.503Z,28.19
2022-08-09T12:58:28.266Z,29.42
2022-08-09T13:00:56.554Z,29.03
2022-08-09T13:03:58.344Z,29.13
2022-08-09T13:06:34.440Z,29.53
2022-08-09T13:09:13.449Z,29.38
2022-08-09T13:11:46.009Z,29.13
2022-08-09T13:14:42.703Z,28.73
2022-08-09T13:17:25.753Z,30.03
2022-08-09T13:20:14.097Z,29.71
2022-08-09T13:23:06.058Z,29.29
2022-08-09T13:25:52.995Z,29.71
2022-08-09T13:28:33.837Z,29.72
2022-08-09T13:32:13.347Z,28.36
2022-08-09T13:33:53.532Z,29.55
2022-08-09T13:36:24.163Z,28.29
2022-08-09T13:41:17.595Z,28.97
2022-08-09T13:42:12.079Z,28.58
2022-08-09T13:44:45.638Z,28.13
2022-08-09T13:47:33.433Z,28.15
2022-08-09T13:50:12.627Z,27.23
2022-08-09T13:52:47.672Z,28.35
2022-08-09T13:55:15.505Z,27.48
2022-08-09T13:57:56.000Z,27.81
2022-08-09T14:00:28.692Z,26.68
2022-08-09T14:03:16.877Z,28.45
2022-08-09T14:05:59.405Z,26.09
2022-08-09T14:08:30.169Z,27.23
2022-08-09T14:10:57.977Z,27.04
2022-08-09T14:14:15.378Z,26.84
2022-08-09T14:16:16.855Z,27.71
2022-08-09T14:18:49.436Z,27.29
2022-08-09T14:21:22.488Z,28.34
2022-08-09T14:23:54.976Z,28.14
2022-08-09T14:26:31.463Z,27.67
2022-08-09T14:29:01.348Z,29.68
2022-08-09T14:31:35.841Z,28.30
2022-08-09T14:34:17.484Z,28.87
2022-08-09T14:36:55.393Z,27.55
2022-08-09T14:39:45.979Z,27.86
2022-08-09T14:42:09.344Z,28.50
2022-08-09T14:44:48.773Z,27.94
2022-08-09T14:47:41.239Z,28.62
2022-08-09T14:50:04.938Z,29.80
2022-08-09T14:52:33.625Z,29.79
2022-08-09T14:55:02.764Z,28.26
2022-08-09T14:57:31.751Z,28.65
2022-08-09T15:00:10.442Z,29.59
2022-08-09T15:02:37.529Z,29.62
2022-08-09T15:05:07.093Z,29.35
2022-08-09T15:07:35.185Z,30.38
2022-08-09T15:10:11.251Z,29.35
2022-08-09T15:12:45.018Z,29.05
2022-08-09T15:15:12.977Z,30.67
2022-08-09T15:17:41.829Z,29.74
2022-08-09T15:20:11.767Z,30.61
2022-08-09T15:22:47.280Z,28.36
2022-08-09T15:25:14.616Z,29.86
2022-08-09T15:28:02.937Z,31.04
2022-08-09T15:30:55.710Z,32.19
2022-08-09T15:33:23.365Z,32.31
2022-08-09T15:36:01.516Z,31.69
2022-08-09T15:38:28.862Z,32.57
2022-08-09T15:40:55.668Z,31.99
2022-08-09T15:43:24.818Z,32.03
2022-08-09T15:46:28.607Z,31.78
2022-08-09T15:49:21.721Z,32.38
2022-08-09T15:52:05.235Z,33.18
2022-08-09T15:54:32.195Z,33.54
2022-08-09T15:57:09.539Z,33.37
2022-08-09T15:59:37.518Z,35.17
2022-08-09T16:02:05.590Z,34.57
2022-08-09T16:04:34.417Z,36.02
2022-08-09T16:07:02.128Z,35.82
2022-08-09T16:09:51.378Z,35.40
2022-08-09T16:12:16.020Z,37.14
2022-08-09T16:14:43.065Z,36.92
2022-08-09T16:17:12.753Z,36.26
2022-08-09T16:19:49.309Z,35.98
2022-08-09T16:22:30.613Z,36.89
2022-08-09T16:24:59.428Z,36.92
2022-08-09T16:27:27.399Z,36.81
2022-08-09T16:30:00.997Z,37.61
2022-08-09T16:32:49.546Z,38.62
2022-08-09T16:35:56.723Z,38.72
2022-08-09T16:38:09.435Z,39.55
2022-08-09T16:40:40.610Z,40.66
2022-08-09T16:43:08.737Z,41.49
2022-08-09T16:45:43.810Z,40.64
2022-08-09T16:48:38.242Z,41.20
2022-08-09T16:51:07.462Z,41.70
2022-08-09T16:53:36.826Z,42.99
2022-08-09T16:56:09.972Z,43.03
2022-08-09T16:58:39.668Z,42.61
2022-08-09T17:01:10.032Z,43.44
2022-08-09T17:03:38.171Z,43.97
2022-08-09T17:06:31.155Z,44.48
2022-08-09T17:08:59.894Z,45.59
2022-08-09T17:11:39.909Z,45.65
2022-08-09T17:14:15.979Z,45.83
2022-08-09T17:17:01.396Z,46.61
2022-08-09T17:19:47.384Z,47.63
2022-08-09T17:22:23.918Z,47.87
2022-08-09T17:25:03.311Z,46.79
2022-08-09T17:27:34.765Z,47.59
2022-08-09T17:30:13.176Z,48.61
2022-08-09T17:32:44.422Z,47.70
2022-08-09T17:35:14.035Z,48.49
2022-08-09T17:38:12.511Z,48.08
2022-08-09T17:40:30.424Z,48.59
2022-08-09T17:43:34.075Z,49.37
2022-08-09T17:46:06.651Z,49.60
2022-08-09T17:48:51.508Z,49.76
2022-08-09T17:51:20.263Z,49.92
2022-08-09T17:53:53.608Z,48.82
2022-08-09T17:56:29.261Z,50.18
2022-08-09T17:59:11.993Z,50.30
2022-08-09T18:02:07.187Z,50.89
2022-08-09T18:04:31.529Z,50.88
2022-08-09T18:06:59.773Z,51.12
2022-08-09T18:09:40.282Z,50.68
2022-08-09T18:12:18.248Z,51.30
2022-08-09T18:14:55.124Z,51.37
2022-08-09T18:18:03.703Z,51.67
2022-08-09T18:20:54.307Z,52.27
2022-08-09T18:23:05.357Z,53.01
2022-08-09T18:25:53.186Z,54.10
2022-08-09T18:30:42.912Z,54.55
2022-08-09T18:31:08.621Z,55.22
2022-08-09T18:33:36.078Z,55.76
2022-08-09T18:36:03.088Z,56.80
2022-08-09T18:38:30.630Z,56.81
2022-08-09T18:40:58.385Z,57.29
2022-08-09T18:43:27.087Z,57.55
2022-08-09T18:46:50.477Z,58.53
2022-08-09T18:48:42.283Z,59.09
2022-08-09T18:51:09.866Z,59.54
2022-08-09T18:53:56.398Z,60.17
2022-08-09T18:56:27.725Z,60.95
2022-08-09T18:58:56.858Z,61.47
2022-08-09T19:01:25.633Z,61.88
2022-08-09T19:04:05.934Z,62.08
2022-08-09T19:06:38.575Z,62.86
2022-08-09T19:09:07.343Z,62.86
2022-08-09T19:11:37.686Z,62.84
2022-08-09T19:14:09.680Z,63.65
2022-08-09T19:16:49.958Z,63.57
2022-08-09T19:19:25.595Z,64.10
2022-08-09T19:22:04.720Z,64.32
2022-08-09T19:25:07.628Z,64.47
2022-08-09T19:27:22.900Z,65.27
2022-08-09T19:30:22.513Z,65.85
2022-08-09T19:32:37.117Z,66.11
2022-08-09T19:35:04.704Z,66.39
2022-08-09T19:37:40.943Z,67.10
2022-08-09T19:40:19.476Z,67.26
2022-08-09T19:42:47.555Z,67.42
2022-08-09T19:45:17.747Z,67.10
2022-08-09T19:47:45.459Z,67.02
2022-08-09T19:50:51.284Z,67.44
2022-08-09T19:53:04.184Z,68.36
2022-08-09T19:56:02.163Z,68.54
2022-08-09T19:58:30.230Z,69.36
2022-08-09T20:00:57.345Z,69.30
2022-08-09T20:04:17.880Z,69.74
2022-08-09T20:06:23.676Z,69.97
2022-08-09T20:08:56.626Z,70.22
2022-08-09T20:11:42.844Z,70.33
2022-08-09T20:14:15.393Z,70.75
2022-08-09T20:16:49.801Z,70.77
2022-08-09T20:19:49.653Z,70.85
2022-08-09T20:22:09.914Z,70.45
2022-08-09T20:24:37.775Z,70.56
2022-08-09T20:27:08.921Z,70.39
2022-08-09T20:29:39.547Z,70.14
2022-08-09T20:32:31.081Z,70.64
2022-08-09T20:34:56.809Z,71.50
2022-08-09T20:37:24.725Z,71.91
2022-08-09T20:40:16.121Z,72.54
2022-08-09T20:42:53.377Z,72.42
2022-08-09T20:46:01.242Z,72.40
2022-08-09T20:48:21.163Z,72.78
2022-08-09T20:50:51.074Z,73.14
2022-08-09T20:53:37.288Z,73.25
2022-08-09T20:56:08.652Z,73.57
2022-08-09T20:58:37.973Z,73.63
2022-08-09T21:01:32.799Z,73.38
2022-08-09T21:05:49.101Z,74.38
2022-08-09T21:06:42.996Z,74.28
2022-08-09T21:09:13.482Z,74.27
2022-08-09T21:14:31.311Z,74.77
2022-08-09T21:17:00.431Z,74.97
2022-08-09T21:20:18.156Z,75.42
2022-08-09T21:22:36.285Z,75.57
2022-08-09T21:25:20.951Z,75.64
2022-08-09T21:27:51.373Z,75.93
2022-08-09T21:30:22.168Z,76.09
2022-08-09T21:32:50.428Z,76.03
2022-08-09T21:35:17.965Z,75.91
2022-08-09T21:37:59.110Z,76.12
2022-08-09T21:40:30.146Z,76.24
2022-08-09T21:43:01.814Z,76.40
2022-08-09T21:45:28.555Z,76.71
2022-08-09T21:47:58.813Z,76.63
2022-08-09T21:50:35.957Z,76.89
2022-08-09T21:53:15.631Z,76.89
2022-08-09T21:55:54.507Z,77.37
2022-08-09T21:58:21.221Z,77.31
2022-08-09T22:00:58.151Z,77.01
2022-08-09T22:03:26.238Z,77.11
2022-08-09T22:05:54.717Z,76.89
2022-08-09T22:08:24.555Z,76.96
2022-08-09T22:11:00.736Z,77.07
2022-08-09T22:13:43.297Z,77.40
2022-08-09T22:16:10.956Z,77.15
2022-08-09T22:18:53.613Z,77.18
2022-08-09T22:21:24.332Z,77.44
2022-08-09T22:23:59.251Z,77.48
2022-08-09T22:26:35.104Z,77.94
2022-08-09T22:29:08.998Z,77.83
2022-08-09T22:31:37.754Z,77.85
2022-08-09T22:34:14.579Z,78.10
2022-08-09T22:36:45.588Z,78.17
2022-08-09T22:39:46.669Z,78.16
2022-08-09T22:42:03.435Z,77.98
2022-08-09T22:44:32.902Z,77.85
2022-08-09T22:48:13.804Z,78.27
2022-08-09T22:49:47.726Z,78.82
2022-08-09T22:52:19.012Z,78.90
2022-08-09T22:54:47.380Z,79.47
2022-08-09T22:57:14.745Z,79.52
2022-08-09T22:59:57.189Z,79.73
2022-08-09T23:02:27.389Z,79.55
2022-08-09T23:04:55.325Z,79.65
2022-08-09T23:08:21.300Z,79.91
2022-08-09T23:10:31.142Z,79.58
2022-08-09T23:12:58.304Z,79.28
2022-08-09T23:15:25.393Z,78.82
2022-08-09T23:17:52.176Z,79.02
2022-08-09T23:20:18.933Z,79.27
2022-08-09T23:22:45.861Z,79.10
2022-08-09T23:25:12.986Z,79.38
2022-08-09T23:28:09.364Z,79.50
2022-08-09T23:30:26.616Z,79.85
2022-08-09T23:32:53.442Z,79.82
2022-08-09T23:35:20.405Z,79.88
2022-08-09T23:37:47.161Z,80.31
2022-08-09T23:40:13.990Z,80.29
2022-08-09T23:42:40.811Z,80.17
2022-08-09T23:45:08.855Z,80.24
2022-08-09T23:47:35.827Z,80.52
2022-08-09T23:50:03.289Z,80.53
2022-08-09T23:52:30.083Z,80.40
2022-08-09T23:54:57.922Z,80.81
2022-08-09T23:57:25.128Z,80.97
